createdAt,value
2022-09-28T07:36:36.117Z,14.98
2022-09-28T07:40:05.974Z,14.55
2022-09-28T07:43:13.091Z,12.50
2022-09-28T07:46:16.977Z,18.42
2022-09-28T07:49:36.214Z,16.63
2022-09-28T07:53:01.198Z,10.75
2022-09-28T07:56:09.807Z,11.90
2022-09-28T07:59:37.106Z,29.23
2022-09-28T08:03:11.765Z,29.08
2022-09-28T08:06:17.188Z,27.92
2022-09-28T08:09:19.930Z,31.85
2022-09-28T08:12:44.274Z,22.58
2022-09-28T08:16:16.263Z,26.30
2022-09-28T08:20:12.826Z,21.98
2022-09-28T08:23:15.768Z,21.75
2022-09-28T08:26:18.420Z,20.30
2022-09-28T08:29:21.433Z,20.63
2022-09-28T08:32:26.613Z,22.73
2022-09-28T08:35:47.693Z,16.42
2022-09-28T08:38:56.810Z,13.98
2022-09-28T08:42:13.778Z,13.00
2022-09-28T08:45:35.966Z,11.23
2022-09-28T08:49:26.765Z,17.93
2022-09-28T08:52:58.235Z,18.05
2022-09-28T08:56:49.824Z,12.07
2022-09-28T08:59:58.589Z,12.95
2022-09-28T09:03:16.149Z,17.85
2022-09-28T09:06:53.133Z,13.73
2022-09-28T09:10:22.375Z,11.70
2022-09-28T09:13:36.508Z,13.80
2022-09-28T09:19:17.516Z,15.93
2022-09-28T09:22:51.981Z,14.57
2022-09-28T09:26:08.980Z,8.63
2022-09-28T09:29:26.996Z,13.35
2022-09-28T09:32:54.522Z,5.78
2022-09-28T09:36:18.124Z,11.83
2022-09-28T09:40:20.017Z,5.70
2022-09-28T09:43:50.087Z,5.07
2022-09-28T09:47:32.853Z,7.18
2022-09-28T09:50:51.644Z,7.22
2022-09-28T09:54:03.108Z,7.57
2022-09-28T09:57:20.592Z,6.15
2022-09-28T10:00:52.630Z,6.78
2022-09-28T10:04:29.221Z,5.15
2022-09-28T10:08:05.485Z,7.43
2022-09-28T10:11:17.392Z,16.70
2022-09-28T10:14:25.879Z,10.32
2022-09-28T10:18:02.258Z,4.13
2022-09-28T10:21:25.251Z,5.85
2022-09-28T10:24:45.320Z,6.65
2022-09-28T10:27:55.864Z,8.17
2022-09-28T10:31:37.345Z,10.27
2022-09-28T10:34:46.338Z,4.68
2022-09-28T10:38:17.387Z,10.40
2022-09-28T10:41:23.216Z,7.40
2022-09-28T10:44:35.013Z,8.60
2022-09-28T10:47:51.007Z,8.77
2022-09-28T10:51:04.950Z,11.45
2022-09-28T10:54:23.081Z,5.57
2022-09-28T10:57:40.885Z,6.03
2022-09-28T11:00:45.355Z,6.53
2022-09-28T11:03:56.468Z,7.90
2022-09-28T11:07:02.668Z,1.95
2022-09-28T11:10:06.122Z,6.20
2022-09-28T11:13:11.054Z,4.85
2022-09-28T11:16:29.699Z,10.73
2022-09-28T11:19:33.696Z,2.67
2022-09-28T11:22:44.516Z,7.57
2022-09-28T11:26:06.077Z,4.20
2022-09-28T11:29:30.447Z,4.20
2022-09-28T11:33:01.353Z,4.10
2022-09-28T11:36:44.161Z,5.10
2022-09-28T11:40:15.210Z,5.55
2022-09-28T11:43:59.836Z,2.88
2022-09-28T11:47:38.105Z,8.40
2022-09-28T11:50:52.502Z,4.33
2022-09-28T11:54:33.850Z,7.72
2022-09-28T11:57:42.176Z,6.50
2022-09-28T12:00:54.520Z,6.15
2022-09-28T12:04:13.939Z,4.43
2022-09-28T12:07:24.814Z,8.37
2022-09-28T12:10:55.550Z,6.10
2022-09-28T12:14:48.389Z,12.55
2022-09-28T12:18:07.442Z,10.73
2022-09-28T12:21:28.259Z,12.43
2022-09-28T12:24:40.528Z,9.57
2022-09-28T12:28:00.226Z,11.68
2022-09-28T12:31:24.144Z,9.20
2022-09-28T12:34:27.029Z,11.65
2022-09-28T12:37:54.551Z,10.38
2022-09-28T12:41:16.405Z,17.20
2022-09-28T12:44:37.422Z,21.00
2022-09-28T12:47:59.984Z,16.77
2022-09-28T12:51:37.454Z,27.02
2022-09-28T12:54:46.137Z,25.23
2022-09-28T12:58:06.639Z,21.03
2022-09-28T13:01:28.025Z,17.70
2022-09-28T13:04:58.046Z,11.38
2022-09-28T13:08:18.997Z,13.55
2022-09-28T13:11:33.491Z,11.95
2022-09-28T13:14:54.653Z,11.23
2022-09-28T13:18:31.218Z,15.30
2022-09-28T13:21:59.323Z,13.95
2022-09-28T13:25:13.468Z,7.72
2022-09-28T13:28:21.337Z,14.10
2022-09-28T13:31:33.954Z,14.90
2022-09-28T13:34:41.414Z,10.63
2022-09-28T13:37:44.167Z,9.35
2022-09-28T13:41:09.965Z,7.70
2022-09-28T13:44:12.975Z,6.97
2022-09-28T13:47:45.253Z,10.97
2022-09-28T13:51:06.348Z,10.98
2022-09-28T13:54:44.639Z,9.98
2022-09-28T13:57:58.374Z,10.32
2022-09-28T14:01:07.536Z,10.45
2022-09-28T14:04:19.144Z,8.33
2022-09-28T14:07:25.029Z,6.28
2022-09-28T14:10:54.037Z,5.20
2022-09-28T14:14:25.146Z,7.63
2022-09-28T14:17:53.427Z,7.03
2022-09-28T14:21:02.109Z,10.67
2022-09-28T14:24:13.918Z,8.50
2022-09-28T14:27:19.431Z,8.75
2022-09-28T14:30:24.214Z,10.80
2022-09-28T14:33:29.685Z,12.65
2022-09-28T14:37:01.222Z,6.20
2022-09-28T14:40:50.678Z,11.98
2022-09-28T14:44:00.734Z,6.65
2022-09-28T14:47:34.800Z,5.60
2022-09-28T14:50:37.550Z,10.35
2022-09-28T14:53:40.434Z,8.50
2022-09-28T14:56:52.160Z,7.22
2022-09-28T14:59:59.779Z,9.68
2022-09-28T15:03:10.218Z,8.57
2022-09-28T15:06:16.320Z,5.90
2022-09-28T15:09:36.799Z,8.50
2022-09-28T15:12:43.907Z,5.05
2022-09-28T15:15:54.430Z,5.95
2022-09-28T15:19:02.902Z,8.35
2022-09-28T15:22:15.555Z,10.75
2022-09-28T15:25:22.743Z,7.83
2022-09-28T15:28:25.538Z,6.50
2022-09-28T15:31:34.142Z,5.13
2022-09-28T15:34:52.246Z,3.03
2022-09-28T15:37:55.792Z,4.97
2022-09-28T15:41:02.907Z,4.30
2022-09-28T15:44:29.311Z,2.70
2022-09-28T15:47:34.382Z,5.93
2022-09-28T15:50:45.989Z,11.18
2022-09-28T15:54:04.424Z,6.82
2022-09-28T15:57:36.070Z,3.90
2022-09-28T16:00:40.373Z,6.70
2022-09-28T16:03:43.300Z,4.40
2022-09-28T16:07:05.453Z,5.22
2022-09-28T16:10:35.343Z,3.75
2022-09-28T16:14:06.968Z,4.67
2022-09-28T16:17:35.655Z,5.43
2022-09-28T16:20:42.800Z,6.47
2022-09-28T16:23:52.330Z,4.70
2022-09-28T16:27:16.521Z,8.02
2022-09-28T16:30:27.410Z,3.63
2022-09-28T16:33:39.539Z,3.65
2022-09-28T16:36:45.669Z,5.03
2022-09-28T16:39:49.003Z,1.58
2022-09-28T16:42:56.251Z,3.78
2022-09-28T16:46:01.374Z,6.17
2022-09-28T16:49:07.824Z,2.80
2022-09-28T16:52:13.751Z,6.45
2022-09-28T16:55:39.657Z,6.43
2022-09-28T16:58:39.260Z,3.55
2022-09-28T17:01:43.955Z,5.87
2022-09-28T17:04:47.812Z,4.03
2022-09-28T17:08:00.651Z,5.07
2022-09-28T17:11:24.019Z,4.90
2022-09-28T17:14:27.017Z,4.70
2022-09-28T17:17:31.439Z,6.20
2022-09-28T17:20:37.689Z,4.82
2022-09-28T17:23:40.381Z,3.83
2022-09-28T17:26:45.022Z,2.63
2022-09-28T17:29:48.254Z,5.65
2022-09-28T17:32:51.647Z,5.70
2022-09-28T17:36:00.594Z,3.30
2022-09-28T17:39:04.153Z,6.00
2022-09-28T17:42:06.866Z,4.75
2022-09-28T17:45:09.770Z,7.47
2022-09-28T17:48:17.793Z,6.17
2022-09-28T17:51:20.525Z,4.25
2022-09-28T17:54:23.392Z,6.63
2022-09-28T17:57:26.886Z,5.68
2022-09-28T18:00:29.563Z,3.28
2022-09-28T18:03:32.240Z,7.17
2022-09-28T18:06:37.359Z,5.95
2022-09-28T18:09:40.198Z,4.63
2022-09-28T18:12:45.753Z,7.72
2022-09-28T18:15:51.664Z,5.93
2022-09-28T18:18:54.619Z,6.00
2022-09-28T18:21:58.470Z,3.72
2022-09-28T18:25:01.557Z,4.43
2022-09-28T18:28:04.196Z,7.35
2022-09-28T18:31:08.937Z,5.28
2022-09-28T18:34:13.672Z,5.30
2022-09-28T18:37:16.518Z,6.15
2022-09-28T18:40:20.205Z,4.18
2022-09-28T18:43:23.325Z,7.47
2022-09-28T18:46:27.949Z,4.78
2022-09-28T18:49:31.602Z,7.23
2022-09-28T18:52:38.591Z,4.72
2022-09-28T18:55:42.992Z,4.97
2022-09-28T18:58:46.467Z,4.65
2022-09-28T19:01:49.432Z,3.72
2022-09-28T19:04:53.055Z,5.33
2022-09-28T19:07:55.767Z,5.70
2022-09-28T19:11:09.555Z,5.13
2022-09-28T19:14:15.129Z,4.30
2022-09-28T19:17:18.234Z,5.78
2022-09-28T19:20:21.253Z,4.33
2022-09-28T19:23:26.852Z,6.95
2022-09-28T19:26:30.350Z,4.78
2022-09-28T19:29:36.011Z,4.28
2022-09-28T19:32:39.010Z,4.82
2022-09-28T19:35:41.723Z,4.73
2022-09-28T19:38:45.462Z,3.83
2022-09-28T19:41:51.537Z,4.10
2022-09-28T19:44:54.249Z,5.43
2022-09-28T19:47:59.575Z,3.58
2022-09-28T19:51:07.399Z,6.00
2022-09-28T19:54:11.332Z,5.13
2022-09-28T19:57:16.098Z,4.22
2022-09-28T20:00:19.132Z,5.72
2022-09-28T20:03:21.923Z,5.00
2022-09-28T20:06:25.904Z,5.83
2022-09-28T20:09:28.794Z,4.65
2022-09-28T20:12:31.473Z,4.20
2022-09-28T20:15:35.954Z,4.28
2022-09-28T20:18:40.346Z,4.72
2022-09-28T20:21:43.057Z,4.90
2022-09-28T20:24:45.887Z,4.30
2022-09-28T20:27:48.506Z,5.22
2022-09-28T20:30:51.275Z,7.05
2022-09-28T20:33:54.020Z,6.40
2022-09-28T20:36:56.854Z,5.03
2022-09-28T20:40:01.565Z,5.55
2022-09-28T20:43:07.215Z,5.55
2022-09-28T20:46:10.906Z,5.15
2022-09-28T20:49:13.720Z,5.00
2022-09-28T20:52:17.217Z,6.73
2022-09-28T20:55:19.896Z,7.53
2022-09-28T20:58:22.602Z,5.32
2022-09-28T21:01:27.529Z,5.43
2022-09-28T21:04:30.342Z,5.00
2022-09-28T21:07:33.308Z,6.77
2022-09-28T21:10:36.054Z,7.30
2022-09-28T21:13:41.615Z,5.88
2022-09-28T21:16:44.311Z,6.00
2022-09-28T21:19:46.955Z,5.82
2022-09-28T21:22:49.634Z,6.83
2022-09-28T21:26:05.944Z,7.15
2022-09-28T21:29:13.886Z,5.75
2022-09-28T21:32:17.097Z,6.43
2022-09-28T21:35:19.825Z,7.35
2022-09-28T21:38:22.591Z,6.23
2022-09-28T21:41:25.609Z,5.57
2022-09-28T21:44:28.277Z,6.22
2022-09-28T21:47:30.996Z,6.85
2022-09-28T21:50:33.721Z,6.57
2022-09-28T21:53:38.003Z,6.23
2022-09-28T21:56:40.899Z,7.45
2022-09-28T21:59:43.573Z,7.25
2022-09-28T22:02:46.528Z,6.43
2022-09-28T22:05:51.394Z,7.15
2022-09-28T22:08:54.065Z,6.80
2022-09-28T22:11:56.762Z,6.43
2022-09-28T22:14:59.594Z,5.80
2022-09-28T22:18:02.283Z,5.50
2022-09-28T22:21:15.226Z,5.25
2022-09-28T22:24:17.919Z,7.27
2022-09-28T22:27:20.656Z,6.25
2022-09-28T22:30:23.341Z,6.05
2022-09-28T22:33:26.612Z,6.38
2022-09-28T22:36:29.675Z,6.35
2022-09-28T22:39:37.479Z,6.93
2022-09-28T22:42:40.569Z,5.80
2022-09-28T22:45:43.513Z,8.27
2022-09-28T22:48:57.691Z,7.05
2022-09-28T22:52:00.506Z,6.05
2022-09-28T22:55:03.239Z,7.20
2022-09-28T22:58:05.990Z,7.53
2022-09-28T23:01:21.018Z,6.53
2022-09-28T23:04:23.830Z,5.40
2022-09-28T23:07:26.563Z,6.60
2022-09-28T23:10:29.465Z,5.60
2022-09-28T23:13:32.591Z,7.35
2022-09-28T23:16:35.264Z,6.10
2022-09-28T23:19:37.991Z,5.63
2022-09-28T23:22:40.672Z,5.82
2022-09-28T23:25:43.300Z,6.00
2022-09-28T23:28:46.549Z,6.05
2022-09-28T23:31:49.247Z,6.70
2022-09-28T23:34:51.879Z,7.20
2022-09-28T23:37:54.498Z,6.13
2022-09-28T23:40:57.478Z,6.10
2022-09-28T23:44:00.401Z,5.50
2022-09-28T23:47:03.177Z,5.43
2022-09-28T23:50:06.877Z,5.47
2022-09-28T23:53:10.728Z,5.68
2022-09-28T23:56:14.481Z,6.20
2022-09-28T23:59:17.462Z,4.95
